Latest Weather Observations for Inner Beacon

IDQ60801

Issued at 11:02 pm EST Wednesday 25 May 2016 (issued every 30 minutes, with the page automatically refreshed every 10 minutes)

About weather observations | Map of weather stations | Latest weather observations for QLD | Other Formats
Station Details ID: 040926 Name: INNER RECIPROCAL MARKER Lat: -27.26 Lon: 153.24 Height: 20.0 m
Data from the previous 72 hours. | See also: Recent months for locations in Queensland
Date/Time
EST
Temp
°C
App
Temp
°C
Dew
Point
Rel
Hum
%
Delta-T
°C
Wind Press
QNH
hPa
Press
MSL
hPa
Rain
since 9 am
mm
Dir
 
Spd
km/h
Gust
km/h
Spd
kts
Gust
kts
25/11:00pm - - - - - NW 15 19 8 10 - - -
25/10:30pm - - - - - NW 15 17 8 9 - - -
25/10:00pm - - - - - NW 19 22 10 12 - - -
25/09:30pm - - - - - NNW 15 17 8 9 - - -
25/09:00pm - - - - - N 11 15 6 8 - - -
25/08:30pm - - - - - N 9 11 5 6 - - -
25/08:00pm - - - - - N 7 9 4 5 - - -
25/07:30pm - - - - - NNE 7 11 4 6 - - -
25/07:00pm - - - - - NNE 11 15 6 8 - - -
25/06:30pm - - - - - NE 11 15 6 8 - - -
25/06:00pm - - - - - NE 11 15 6 8 - - -
25/05:30pm - - - - - ENE 13 15 7 8 - - -
25/05:00pm - - - - - E 11 15 6 8 - - -
25/04:30pm - - - - - E 13 15 7 8 - - -
25/04:00pm - - - - - ESE 11 15 6 8 - - -
25/03:30pm - - - - - ESE 9 13 5 7 - - -
25/03:00pm - - - - - ESE 7 9 4 5 - - -
25/02:30pm - - - - - SE 6 9 3 5 - - -
25/02:00pm - - - - - SE 4 6 2 3 - - -
25/01:30pm - - - - - CALM 0 0 0 0 - - -
25/01:00pm - - - - - CALM 0 0 0 0 - - -
25/12:30pm - - - - - W 4 6 2 3 - - -
25/12:00pm - - - - - WSW 4 6 2 3 - - -
25/11:30am - - - - - WSW 6 7 3 4 - - -
25/11:00am - - - - - WSW 6 9 3 5 - - -
25/10:30am - - - - - WSW 7 9 4 5 - - -
25/10:00am - - - - - SW 9 11 5 6 - - -
25/09:30am - - - - - SW 11 13 6 7 - - -
25/09:00am - - - - - SW 11 13 6 7 - - -
25/08:30am - - - - - SSW 11 13 6 7 - - -
25/08:00am - - - - - S 11 13 6 7 - - -
25/07:30am - - - - - SSW 11 15 6 8 - - -
25/07:00am - - - - - SSW 9 13 5 7 - - -
25/06:30am - - - - - S 13 17 7 9 - - -
25/06:00am - - - - - S 13 17 7 9 - - -
25/05:30am - - - - - SW 11 13 6 7 - - -
25/05:00am - - - - - W 9 11 5 6 - - -
25/04:30am - - - - - W 11 15 6 8 - - -
25/04:00am - - - - - WNW 17 19 9 10 - - -
25/03:30am - - - - - W 19 22 10 12 - - -
25/03:00am - - - - - WSW 22 26 12 14 - - -
25/02:30am - - - - - WSW 20 26 11 14 - - -
25/02:00am - - - - - WSW 17 20 9 11 - - -
25/01:30am - - - - - WSW 24 26 13 14 - - -
25/01:00am - - - - - WSW 20 26 11 14 - - -
25/12:30am - - - - - W 20 24 11 13 - - -
25/12:00am - - - - - W 22 26 12 14 - - -
 
Date/Time
EST
Temp
°C
App
Temp
°C
Dew
Point
Rel
Hum
%
Delta-T
°C
Wind Press
QNH
hPa
Press
MSL
hPa
Rain
since 9 am
mm
Dir
 
Spd
km/h
Gust
km/h
Spd
kts
Gust
kts
24/11:30pm - - - - - WNW 20 24 11 13 - - -
24/11:00pm - - - - - NW 22 24 12 13 - - -
24/10:30pm - - - - - NW 20 22 11 12 - - -
24/10:00pm - - - - - NW 17 20 9 11 - - -
24/09:30pm - - - - - NW 13 17 7 9 - - -
24/09:00pm - - - - - NNW 11 13 6 7 - - -
24/08:30pm - - - - - NNW 6 7 3 4 - - -
24/08:00pm - - - - - CALM 0 0 0 0 - - -
24/07:30pm - - - - - E 6 9 3 5 - - -
24/07:00pm - - - - - E 9 11 5 6 - - -
24/06:30pm - - - - - ESE 13 15 7 8 - - -
24/06:00pm - - - - - ESE 15 17 8 9 - - -
24/05:30pm - - - - - ESE 20 24 11 13 - - -
24/05:00pm - - - - - ESE 19 20 10 11 - - -
24/04:30pm - - - - - E 15 20 8 11 - - -
24/04:00pm - - - - - ESE 17 20 9 11 - - -
24/03:30pm - - - - - ESE 17 19 9 10 - - -
24/03:00pm - - - - - E 19 24 10 13 - - -
24/02:30pm - - - - - E 17 22 9 12 - - -
24/02:00pm - - - - - ESE 13 17 7 9 - - -
24/01:30pm - - - - - ESE 17 19 9 10 - - -
24/01:00pm - - - - - SE 17 20 9 11 - - -
24/12:30pm - - - - - SSE 19 22 10 12 - - -
24/12:00pm - - - - - SSE 22 28 12 15 - - -
24/11:30am - - - - - SSE 28 32 15 17 - - -
24/11:00am - - - - - S 20 22 11 12 - - -
24/10:30am - - - - - S 19 22 10 12 - - -
24/10:00am - - - - - SSW 15 19 8 10 - - -
24/09:30am - - - - - SSW 13 15 7 8 - - -
24/09:00am - - - - - SSW 17 19 9 10 - - -
24/08:30am - - - - - SSW 17 19 9 10 - - -
24/08:00am - - - - - S 20 33 11 18 - - -
24/07:30am - - - - - SW 13 15 7 8 - - -
24/07:00am - - - - - SW 11 13 6 7 - - -
24/06:30am - - - - - SW 9 13 5 7 - - -
24/06:00am - - - - - CALM 0 0 0 0 - - -
24/05:30am - - - - - SE 4 7 2 4 - - -
24/05:00am - - - - - SSW 13 15 7 8 - - -
24/04:30am - - - - - S 9 13 5 7 - - -
24/04:00am - - - - - SW 11 15 6 8 - - -
24/03:30am - - - - - WSW 13 17 7 9 - - -
24/03:00am - - - - - WNW 13 17 7 9 - - -
24/02:30am - - - - - NNW 13 17 7 9 - - -
24/02:00am - - - - - NNW 17 20 9 11 - - -
24/01:30am - - - - - NNW 19 22 10 12 - - -
24/01:00am - - - - - N 20 22 11 12 - - -
24/12:30am - - - - - NNW 22 24 12 13 - - -
24/12:00am - - - - - N 24 26 13 14 - - -
 
Date/Time
EST
Temp
°C
App
Temp
°C
Dew
Point
Rel
Hum
%
Delta-T
°C
Wind Press
QNH
hPa
Press
MSL
hPa
Rain
since 9 am
mm
Dir
 
Spd
km/h
Gust
km/h
Spd
kts
Gust
kts
23/11:30pm - - - - - N 20 24 11 13 - - -
23/11:00pm - - - - - N 24 28 13 15 - - -
23/10:30pm - - - - - N 24 28 13 15 - - -
23/10:00pm - - - - - N 28 33 15 18 - - -
23/09:30pm - - - - - N 30 35 16 19 - - -
23/09:00pm - - - - - N 28 32 15 17 - - -
23/08:30pm - - - - - N 28 32 15 17 - - -
23/08:00pm - - - - - NNW 24 28 13 15 - - -
23/07:30pm - - - - - N 28 32 15 17 - - -
23/07:00pm - - - - - N 30 33 16 18 - - -
23/06:30pm - - - - - N 30 35 16 19 - - -
23/06:00pm - - - - - N 30 33 16 18 - - -
23/05:30pm - - - - - N 28 32 15 17 - - -
23/05:00pm - - - - - N 28 32 15 17 - - -
23/04:30pm - - - - - N 26 30 14 16 - - -
23/04:00pm - - - - - N 26 30 14 16 - - -
23/03:30pm - - - - - N 24 28 13 15 - - -
23/03:00pm - - - - - NNE 20 22 11 12 - - -
23/02:30pm - - - - - NNE 19 20 10 11 - - -
23/02:00pm - - - - - NNE 17 19 9 10 - - -
23/01:30pm - - - - - NNE 13 17 7 9 - - -
23/01:00pm - - - - - NNE 9 13 5 7 - - -
23/12:30pm - - - - - NNE 7 9 4 5 - - -
23/12:00pm - - - - - NNE 4 6 2 3 - - -
23/11:30am - - - - - NNE 4 6 2 3 - - -
23/11:00am - - - - - NW 2 4 1 2 - - -
23/10:30am - - - - - W 4 4 2 2 - - -
23/10:00am - - - - - WSW 4 6 2 3 - - -
23/09:30am - - - - - WSW 4 6 2 3 - - -
23/09:00am - - - - - SW 7 9 4 5 - - -
23/08:30am - - - - - SW 7 9 4 5 - - -
23/08:00am - - - - - SW 9 13 5 7 - - -
23/07:30am - - - - - SW 13 15 7 8 - - -
23/07:00am - - - - - SW 13 15 7 8 - - -
23/06:30am - - - - - SW 17 19 9 10 - - -
23/06:00am - - - - - SSW 13 15 7 8 - - -
23/05:30am - - - - - SSW 17 19 9 10 - - -
23/05:00am - - - - - SSW 15 17 8 9 - - -
23/04:30am - - - - - SSW 19 20 10 11 - - -
23/04:00am - - - - - SW 17 19 9 10 - - -
23/03:30am - - - - - SW 17 17 9 9 - - -
23/03:00am - - - - - SW 15 17 8 9 - - -
23/02:30am - - - - - SW 13 15 7 8 - - -
23/02:00am - - - - - SW 13 17 7 9 - - -
23/01:30am - - - - - WSW 13 15 7 8 - - -
23/01:00am - - - - - SW 11 15 6 8 - - -
23/12:30am - - - - - WSW 11 13 6 7 - - -
23/12:00am - - - - - CALM 0 0 0 0 - - -
 
Date/Time
EST
Temp
°C
App
Temp
°C
Dew
Point
Rel
Hum
%
Delta-T
°C
Wind Press
QNH
hPa
Press
MSL
hPa
Rain
since 9 am
mm
Dir
 
Spd
km/h
Gust
km/h
Spd
kts
Gust
kts
22/11:30pm - - - - - CALM 0 2 0 1 - - -

Other Formats:

Comma delimited format used in spreadsheet applications
http://www.bom.gov.au/fwo/IDQ60801/IDQ60801.94590.axf

JavaScript Object Notation format (JSON) in row-major order
http://www.bom.gov.au/fwo/IDQ60801/IDQ60801.94590.json